Perch River, New York
Current Conditions -  °F | °C
As of 1:56 PM on Saturday 25 Oct 2014 (Local Time) from KART Reporting Station
Overcast Overcast  
Wind Chill: 60°   Ceiling: 3800
Heat Index: 60°   Visibility: 10mi
Dew Point: 46°   Wind: 13mph
Humidity: 60%   Direction: 210°SSW
Pressure: 29.6"   Gusts: 23mph
Location:  44.0116°N, 76.0789°W
Report Text: KART 251756Z AUTO 21011G20KT 10SM BKN038 OVC100 16/08 A2960 RMK AO2 SLP022 T01560078 10161 20100 56041
Loading
Personal Weather Stations






























Interactive Weather Map New forecast layout! Learn more

10-Day Weather Forecast

Advertisements
Track Severe Weather on mobile